createdAt,value
2023-04-23T00:00:44.655Z,2.40
2023-04-23T00:03:15.495Z,2.90
2023-04-23T00:05:45.582Z,2.30
2023-04-23T00:08:13.716Z,2.27
2023-04-23T00:10:43.253Z,2.37
2023-04-23T00:13:11.497Z,2.60
2023-04-23T00:15:39.519Z,2.70
2023-04-23T00:18:08.017Z,2.40
2023-04-23T00:20:36.730Z,2.50
2023-04-23T00:23:04.452Z,3.00
2023-04-23T00:25:32.310Z,2.90
2023-04-23T00:28:01.358Z,2.40
2023-04-23T00:30:29.358Z,2.60
2023-04-23T00:32:57.145Z,1.90
2023-04-23T00:35:24.916Z,2.50
2023-04-23T00:37:52.572Z,2.10
2023-04-23T00:40:20.771Z,2.40
2023-04-23T00:42:49.197Z,1.60
2023-04-23T00:45:18.261Z,2.10
2023-04-23T00:47:47.068Z,2.47
2023-04-23T00:50:18.027Z,2.30
2023-04-23T00:52:45.770Z,2.13
2023-04-23T00:55:13.576Z,2.60
2023-04-23T00:57:42.364Z,2.50
2023-04-23T01:00:13.995Z,2.40
2023-04-23T01:02:44.438Z,1.90
2023-04-23T01:05:15.558Z,2.40
2023-04-23T01:07:45.025Z,2.27
2023-04-23T01:10:13.531Z,2.53
2023-04-23T01:12:41.306Z,2.43
2023-04-23T01:15:10.527Z,2.17
2023-04-23T01:17:38.430Z,2.23
2023-04-23T01:20:09.676Z,2.67
2023-04-23T01:22:39.165Z,2.50
2023-04-23T01:25:08.266Z,1.97
2023-04-23T01:27:36.382Z,2.37
2023-04-23T01:30:04.844Z,2.07
2023-04-23T01:32:33.324Z,2.33
2023-04-23T01:35:01.437Z,2.00
2023-04-23T01:37:30.377Z,2.63
2023-04-23T01:39:59.888Z,2.80
2023-04-23T01:42:27.844Z,2.60
2023-04-23T01:44:55.863Z,2.27
2023-04-23T01:47:23.682Z,2.53
2023-04-23T01:49:51.516Z,2.03
2023-04-23T01:52:19.248Z,2.10
2023-04-23T01:54:48.178Z,2.27
2023-04-23T01:57:23.898Z,2.50
2023-04-23T01:59:51.687Z,2.30
2023-04-23T02:02:21.154Z,2.07
2023-04-23T02:04:49.380Z,2.30
2023-04-23T02:07:17.238Z,2.20
2023-04-23T02:09:44.985Z,2.37
2023-04-23T02:12:12.668Z,2.23
2023-04-23T02:14:42.111Z,2.40
2023-04-23T02:17:10.101Z,2.27
2023-04-23T02:19:37.829Z,2.60
2023-04-23T02:22:05.768Z,2.30
2023-04-23T02:24:33.511Z,2.50
2023-04-23T02:27:01.471Z,2.20
2023-04-23T02:29:29.224Z,2.40
2023-04-23T02:31:58.355Z,2.40
2023-04-23T02:34:26.146Z,2.80
2023-04-23T02:36:53.860Z,2.33
2023-04-23T02:39:21.624Z,2.40
2023-04-23T02:41:49.333Z,2.00
2023-04-23T02:44:18.561Z,2.43
2023-04-23T02:46:46.575Z,2.20
2023-04-23T02:49:16.106Z,2.13
2023-04-23T02:51:43.995Z,2.77
2023-04-23T02:54:11.910Z,3.10
2023-04-23T02:56:39.653Z,2.00
2023-04-23T02:59:08.390Z,2.33
2023-04-23T03:01:36.145Z,2.57
2023-04-23T03:04:04.729Z,1.93
2023-04-23T03:06:35.779Z,2.17
2023-04-23T03:09:03.501Z,2.00
2023-04-23T03:11:31.322Z,1.73
2023-04-23T03:13:59.070Z,2.00
2023-04-23T03:16:29.358Z,2.00
2023-04-23T03:18:57.328Z,1.80
2023-04-23T03:21:25.106Z,1.90
2023-04-23T03:23:54.211Z,1.87
2023-04-23T03:26:21.891Z,1.90
2023-04-23T03:28:49.580Z,2.07
2023-04-23T03:31:17.420Z,1.70
2023-04-23T03:33:45.132Z,1.93
2023-04-23T03:36:12.848Z,1.80
2023-04-23T03:38:40.583Z,1.40
2023-04-23T03:41:09.720Z,1.60
2023-04-23T03:43:37.401Z,1.40
2023-04-23T03:46:05.133Z,1.43
2023-04-23T03:48:32.768Z,1.80
2023-04-23T03:51:00.552Z,1.60
2023-04-23T03:53:28.257Z,1.80
2023-04-23T03:55:55.886Z,1.93
2023-04-23T03:58:24.947Z,1.60
2023-04-23T04:00:52.657Z,1.90
2023-04-23T04:03:20.787Z,1.40
2023-04-23T04:05:48.738Z,1.50
2023-04-23T04:08:16.477Z,1.80
2023-04-23T04:10:44.355Z,1.47
2023-04-23T04:13:12.037Z,1.23
2023-04-23T04:15:41.127Z,1.37
2023-04-23T04:18:08.859Z,1.40
2023-04-23T04:20:36.565Z,1.40
2023-04-23T04:23:04.260Z,2.00
2023-04-23T04:25:32.036Z,1.53
2023-04-23T04:28:00.474Z,1.50
2023-04-23T04:30:28.251Z,1.23
2023-04-23T04:32:58.699Z,1.60
2023-04-23T04:35:26.560Z,1.90
2023-04-23T04:37:54.940Z,1.63
2023-04-23T04:40:22.925Z,1.70
2023-04-23T04:42:51.461Z,1.30
2023-04-23T04:45:19.594Z,1.40
2023-04-23T04:47:47.243Z,1.80
2023-04-23T04:50:16.274Z,1.93
2023-04-23T04:52:43.992Z,1.73
2023-04-23T04:55:11.749Z,1.63
2023-04-23T04:57:39.432Z,1.83
2023-04-23T05:00:22.499Z,1.73
2023-04-23T05:02:51.422Z,2.07
2023-04-23T05:05:21.407Z,1.90
2023-04-23T05:07:49.455Z,2.07
2023-04-23T05:10:17.342Z,2.33
2023-04-23T05:12:45.044Z,2.17
2023-04-23T05:15:14.393Z,1.97
2023-04-23T05:17:42.388Z,2.23
2023-04-23T05:20:11.755Z,2.17
2023-04-23T05:22:42.373Z,2.10
2023-04-23T05:25:11.729Z,2.40
2023-04-23T05:27:39.841Z,1.83
2023-04-23T05:30:09.509Z,2.30
2023-04-23T05:32:37.871Z,2.00
2023-04-23T05:35:07.031Z,1.90
2023-04-23T05:37:34.760Z,1.43
2023-04-23T05:40:05.332Z,2.10
2023-04-23T05:42:33.254Z,1.83
2023-04-23T05:45:00.938Z,1.20
2023-04-23T05:47:28.722Z,1.37
2023-04-23T05:49:57.290Z,1.40
2023-04-23T05:52:25.519Z,1.23
2023-04-23T05:54:53.306Z,1.30
2023-04-23T05:57:22.387Z,1.13
2023-04-23T05:59:50.052Z,1.20
2023-04-23T06:02:17.939Z,1.20
2023-04-23T06:04:46.325Z,1.00
2023-04-23T06:07:15.256Z,1.20
2023-04-23T06:09:43.023Z,1.00
2023-04-23T06:12:11.049Z,1.50
2023-04-23T06:14:40.316Z,1.80
2023-04-23T06:17:08.242Z,1.23
2023-04-23T06:19:36.036Z,1.30
2023-04-23T06:22:03.771Z,1.33
2023-04-23T06:24:31.435Z,1.40
2023-04-23T06:26:59.229Z,1.07
2023-04-23T06:29:27.048Z,1.17
2023-04-23T06:31:58.043Z,1.20
2023-04-23T06:34:25.782Z,1.10
2023-04-23T06:36:53.555Z,1.17
2023-04-23T06:39:21.374Z,1.10
2023-04-23T06:41:49.103Z,1.17
2023-04-23T06:44:16.758Z,1.00
2023-04-23T06:46:44.531Z,1.10
2023-04-23T06:49:13.610Z,0.90
2023-04-23T06:51:41.411Z,1.00
2023-04-23T06:54:09.332Z,0.90
2023-04-23T06:56:37.211Z,1.10
2023-04-23T06:59:04.978Z,1.20
2023-04-23T07:01:32.704Z,1.20
2023-04-23T07:04:01.109Z,1.10
2023-04-23T07:06:31.279Z,1.13
2023-04-23T07:08:59.471Z,1.03
2023-04-23T07:11:29.668Z,0.87
2023-04-23T07:13:57.968Z,1.00
2023-04-23T07:16:25.897Z,1.00
2023-04-23T07:18:54.025Z,1.13
2023-04-23T07:21:21.766Z,1.00
2023-04-23T07:23:50.977Z,0.90
2023-04-23T07:26:18.849Z,0.73
2023-04-23T07:28:49.345Z,0.90
2023-04-23T07:31:19.825Z,0.97
2023-04-23T07:33:47.816Z,1.80
2023-04-23T07:36:15.658Z,1.57
2023-04-23T07:38:44.194Z,1.53
2023-04-23T07:41:14.202Z,1.53
2023-04-23T07:43:42.060Z,2.07
2023-04-23T07:46:10.618Z,1.37
2023-04-23T07:48:38.653Z,1.23
2023-04-23T07:51:06.857Z,1.30
2023-04-23T07:53:34.918Z,1.30
2023-04-23T07:56:02.743Z,1.20
2023-04-23T07:58:32.936Z,1.57
2023-04-23T08:01:00.720Z,1.70
2023-04-23T08:03:29.874Z,1.47
2023-04-23T08:05:57.790Z,1.17
2023-04-23T08:08:25.643Z,1.20
2023-04-23T08:10:56.746Z,1.67
2023-04-23T08:13:26.216Z,1.23
2023-04-23T08:15:57.141Z,1.40
2023-04-23T08:18:28.564Z,1.53
2023-04-23T08:21:01.822Z,1.30
2023-04-23T08:23:30.234Z,1.33
2023-04-23T08:25:59.441Z,1.63
2023-04-23T08:28:33.345Z,1.70
2023-04-23T08:31:11.970Z,1.47
2023-04-23T08:33:51.303Z,1.50
2023-04-23T08:36:22.626Z,1.40
2023-04-23T08:38:56.418Z,1.90
2023-04-23T08:41:31.195Z,1.40
2023-04-23T08:44:19.710Z,1.40
2023-04-23T08:46:49.568Z,1.50
2023-04-23T08:49:19.159Z,1.40
2023-04-23T08:51:50.773Z,1.20
2023-04-23T08:54:23.238Z,1.20
2023-04-23T08:56:52.581Z,1.30
2023-04-23T08:59:23.028Z,1.60
2023-04-23T09:01:53.003Z,1.43
2023-04-23T09:04:21.382Z,1.30
2023-04-23T09:06:49.130Z,1.30
2023-04-23T09:09:18.101Z,1.33
2023-04-23T09:11:45.917Z,1.40
2023-04-23T09:14:14.961Z,1.40
2023-04-23T09:16:43.030Z,1.67
2023-04-23T09:19:12.687Z,1.37
2023-04-23T09:21:41.228Z,1.27
2023-04-23T09:24:12.647Z,1.47
2023-04-23T09:26:46.744Z,1.27
2023-04-23T09:29:17.496Z,1.17
2023-04-23T09:31:47.572Z,1.23
2023-04-23T09:34:18.216Z,1.23
2023-04-23T09:36:46.412Z,1.10
2023-04-23T09:39:14.982Z,1.20
2023-04-23T09:41:42.844Z,1.17
2023-04-23T09:44:12.339Z,1.40
2023-04-23T09:46:42.787Z,1.20
2023-04-23T09:49:12.140Z,1.13
2023-04-23T09:51:42.536Z,1.13
2023-04-23T09:54:14.995Z,1.37
2023-04-23T09:56:42.973Z,1.50
2023-04-23T09:59:32.456Z,1.40
2023-04-23T10:02:12.488Z,1.50
2023-04-23T10:04:42.107Z,1.57
2023-04-23T10:07:19.817Z,1.27
2023-04-23T10:09:48.779Z,1.07
2023-04-23T10:12:36.588Z,1.40
2023-04-23T10:15:05.612Z,1.30
2023-04-23T10:17:33.988Z,1.30
2023-04-23T10:20:02.669Z,1.40
2023-04-23T10:22:32.547Z,1.23
2023-04-23T10:25:06.396Z,2.53
2023-04-23T10:27:51.131Z,2.20
2023-04-23T10:30:21.671Z,1.00
2023-04-23T10:32:50.196Z,1.33
2023-04-23T10:35:18.123Z,1.07
2023-04-23T10:37:49.130Z,1.37
2023-04-23T10:40:22.085Z,0.93
2023-04-23T10:42:51.169Z,1.03
2023-04-23T10:45:25.406Z,1.30
2023-04-23T10:47:56.501Z,1.20
2023-04-23T10:50:26.850Z,1.10
2023-04-23T10:52:57.648Z,1.20
2023-04-23T10:55:28.655Z,1.20
2023-04-23T10:58:02.278Z,1.33
2023-04-23T11:00:43.232Z,1.03
2023-04-23T11:03:33.329Z,1.20
2023-04-23T11:06:03.517Z,1.30
2023-04-23T11:08:36.738Z,1.20
2023-04-23T11:11:09.501Z,1.10
2023-04-23T11:13:51.773Z,1.27
2023-04-23T11:16:23.671Z,1.20
2023-04-23T11:18:58.893Z,0.90
2023-04-23T11:22:01.567Z,1.40
2023-04-23T11:24:32.449Z,1.40
2023-04-23T11:27:01.231Z,1.30
2023-04-23T11:29:29.557Z,1.43
2023-04-23T11:32:03.171Z,1.10
2023-04-23T11:34:33.114Z,1.10
2023-04-23T11:37:01.699Z,1.30
2023-04-23T11:39:31.100Z,1.40
2023-04-23T11:41:59.523Z,2.23
2023-04-23T11:44:28.181Z,0.87
2023-04-23T11:46:58.349Z,2.30
2023-04-23T11:49:26.411Z,1.00
2023-04-23T11:52:04.954Z,0.83
2023-04-23T11:54:43.035Z,1.20
2023-04-23T11:57:11.088Z,1.10
2023-04-23T11:59:38.833Z,1.67
2023-04-23T12:02:06.684Z,1.30
2023-04-23T12:04:34.465Z,1.97
2023-04-23T12:07:23.093Z,1.60
2023-04-23T12:09:59.994Z,1.20
2023-04-23T12:12:34.199Z,1.20
2023-04-23T12:15:05.804Z,1.00
2023-04-23T12:17:33.786Z,1.60
2023-04-23T12:20:06.700Z,1.20
2023-04-23T12:22:34.440Z,1.17
2023-04-23T12:25:07.883Z,1.20
2023-04-23T12:27:40.255Z,1.30
2023-04-23T12:30:09.204Z,1.30
2023-04-23T12:32:38.156Z,1.30
2023-04-23T12:35:08.565Z,1.50
2023-04-23T12:37:37.771Z,1.40
2023-04-23T12:40:08.375Z,1.20
2023-04-23T12:42:37.059Z,1.40
2023-04-23T12:45:10.147Z,1.07
2023-04-23T12:47:37.998Z,1.67
2023-04-23T12:50:06.681Z,1.30
2023-04-23T12:52:34.575Z,1.10
2023-04-23T12:55:04.966Z,1.20
2023-04-23T12:57:34.419Z,1.07
2023-04-23T13:00:02.432Z,1.30
2023-04-23T13:02:30.348Z,1.13
2023-04-23T13:05:01.186Z,1.10
2023-04-23T13:07:29.397Z,1.37
2023-04-23T13:09:59.578Z,1.80
2023-04-23T13:12:28.040Z,1.37
2023-04-23T13:14:57.408Z,1.60
2023-04-23T13:17:26.610Z,1.60
2023-04-23T13:19:54.828Z,1.40
2023-04-23T13:22:22.956Z,1.30
2023-04-23T13:24:50.720Z,1.17
2023-04-23T13:27:18.514Z,2.13
2023-04-23T13:29:46.341Z,1.00
2023-04-23T13:32:16.413Z,1.10
2023-04-23T13:34:44.221Z,1.30
2023-04-23T13:37:12.024Z,1.27
2023-04-23T13:39:41.823Z,1.03
2023-04-23T13:42:10.402Z,1.27
2023-04-23T13:44:38.235Z,1.43
2023-04-23T13:47:06.176Z,1.30
2023-04-23T13:49:35.982Z,1.20
2023-04-23T13:52:06.629Z,1.40
2023-04-23T13:54:35.533Z,1.13
2023-04-23T13:57:03.530Z,1.00
2023-04-23T13:59:31.375Z,1.13
2023-04-23T14:01:59.119Z,0.93
2023-04-23T14:04:27.065Z,1.10
2023-04-23T14:06:56.352Z,1.33
2023-04-23T14:09:24.327Z,1.33
2023-04-23T14:11:53.261Z,0.97
2023-04-23T14:14:21.011Z,1.10
2023-04-23T14:16:48.780Z,1.20
2023-04-23T14:19:17.440Z,1.30
2023-04-23T14:21:46.264Z,1.10
2023-04-23T14:24:24.335Z,1.13
2023-04-23T14:26:52.027Z,1.40
2023-04-23T14:29:24.871Z,1.10
2023-04-23T14:31:53.210Z,1.00
2023-04-23T14:34:21.146Z,1.30
2023-04-23T14:36:49.701Z,0.97
2023-04-23T14:39:18.854Z,1.30
2023-04-23T14:41:46.792Z,1.20
2023-04-23T14:44:14.878Z,1.73
2023-04-23T14:46:42.803Z,1.50
2023-04-23T14:49:10.613Z,1.50
2023-04-23T14:51:38.498Z,1.80
2023-04-23T14:54:07.727Z,1.57
2023-04-23T14:56:42.215Z,1.80
2023-04-23T14:59:10.524Z,1.30
2023-04-23T15:01:38.333Z,1.90
2023-04-23T15:04:06.775Z,1.60
2023-04-23T15:06:34.631Z,1.53
2023-04-23T15:09:02.409Z,1.67
2023-04-23T15:11:30.313Z,1.60
2023-04-23T15:14:04.389Z,1.33
2023-04-23T15:19:07.494Z,1.37
2023-04-23T15:21:36.320Z,1.70
2023-04-23T15:24:05.261Z,1.50
2023-04-23T15:26:33.740Z,1.30
2023-04-23T15:29:04.014Z,1.63
2023-04-23T15:31:31.864Z,1.90
2023-04-23T15:33:59.577Z,1.10
2023-04-23T15:36:27.616Z,1.50
2023-04-23T15:38:55.437Z,1.50
2023-04-23T15:41:23.257Z,1.20
2023-04-23T15:43:53.665Z,1.40
2023-04-23T15:46:23.088Z,1.20
2023-04-23T15:48:50.868Z,1.17
2023-04-23T15:51:18.838Z,1.03
2023-04-23T15:53:46.664Z,1.10
2023-04-23T15:56:14.700Z,1.33
2023-04-23T15:58:42.390Z,1.00
2023-04-23T16:01:10.415Z,1.40
2023-04-23T16:03:39.679Z,1.60
2023-04-23T16:06:09.061Z,1.30
2023-04-23T16:08:38.285Z,1.40
2023-04-23T16:11:07.341Z,1.30
2023-04-23T16:13:35.408Z,1.30
2023-04-23T16:16:03.300Z,1.00
2023-04-23T16:18:31.669Z,1.40
2023-04-23T16:21:01.528Z,1.10
2023-04-23T16:23:29.534Z,1.23
2023-04-23T16:25:57.783Z,1.50
2023-04-23T16:28:26.124Z,1.20
2023-04-23T16:30:53.948Z,1.13
2023-04-23T16:33:23.884Z,1.27
2023-04-23T16:35:51.759Z,1.50
2023-04-23T16:38:20.939Z,1.80
2023-04-23T16:40:48.637Z,1.57
2023-04-23T16:43:16.396Z,1.70
2023-04-23T16:45:44.206Z,1.80
2023-04-23T16:48:13.963Z,2.10
2023-04-23T16:50:43.110Z,2.00
2023-04-23T16:53:11.210Z,1.50
2023-04-23T16:55:40.338Z,2.67
2023-04-23T16:58:09.910Z,1.70
2023-04-23T17:00:37.732Z,1.67
2023-04-23T17:03:05.969Z,2.50
2023-04-23T17:05:35.570Z,1.40
2023-04-23T17:08:03.338Z,1.70
2023-04-23T17:10:31.193Z,1.83
2023-04-23T17:13:00.363Z,1.87
2023-04-23T17:15:28.203Z,2.10
2023-04-23T17:17:58.783Z,1.77
2023-04-23T17:20:26.586Z,1.70
2023-04-23T17:22:54.460Z,1.70
2023-04-23T17:25:22.159Z,1.70
2023-04-23T17:27:49.963Z,1.80
2023-04-23T17:30:30.159Z,1.80
2023-04-23T17:32:58.235Z,2.30
2023-04-23T17:35:26.430Z,1.87
2023-04-23T17:37:54.872Z,1.83
2023-04-23T17:40:22.608Z,2.87
2023-04-23T17:42:50.636Z,1.90
2023-04-23T17:45:19.157Z,1.90
2023-04-23T17:47:48.478Z,1.77
2023-04-23T17:50:16.498Z,1.63
2023-04-23T17:52:45.117Z,1.87
2023-04-23T17:55:13.061Z,2.10
2023-04-23T17:57:41.111Z,1.80
2023-04-23T18:00:12.159Z,1.70
2023-04-23T18:02:41.524Z,1.87
2023-04-23T18:05:12.396Z,1.70
2023-04-23T18:07:41.064Z,1.70
2023-04-23T18:10:10.386Z,1.80
2023-04-23T18:12:40.401Z,1.87
2023-04-23T18:15:12.292Z,2.10
2023-04-23T18:17:40.746Z,2.97
2023-04-23T18:20:10.883Z,2.30
2023-04-23T18:22:39.421Z,2.60
2023-04-23T18:25:12.921Z,3.03
2023-04-23T18:27:40.743Z,2.77
2023-04-23T18:30:12.499Z,2.23
2023-04-23T18:32:44.529Z,2.20
2023-04-23T18:35:13.879Z,2.50
2023-04-23T18:37:44.672Z,2.10
2023-04-23T18:40:13.444Z,2.00
2023-04-23T18:42:41.503Z,2.23
2023-04-23T18:45:10.786Z,2.20
2023-04-23T18:47:45.160Z,1.90
2023-04-23T18:50:36.258Z,2.07
2023-04-23T18:53:06.210Z,2.43
2023-04-23T18:55:33.920Z,2.87
2023-04-23T18:58:02.259Z,2.23
2023-04-23T19:00:30.185Z,2.40
2023-04-23T19:02:58.650Z,2.90
2023-04-23T19:05:28.253Z,3.07
2023-04-23T19:07:56.152Z,2.63
2023-04-23T19:10:24.035Z,2.57
2023-04-23T19:12:51.934Z,2.70
2023-04-23T19:15:19.847Z,2.47
2023-04-23T19:17:48.166Z,3.23
2023-04-23T19:20:16.829Z,2.80
2023-04-23T19:22:46.647Z,2.83
2023-04-23T19:25:14.479Z,2.90
2023-04-23T19:27:42.195Z,3.23
2023-04-23T19:30:11.020Z,2.67
2023-04-23T19:32:38.875Z,2.23
2023-04-23T19:35:07.197Z,2.00
2023-04-23T19:37:36.093Z,1.40
2023-04-23T19:40:07.361Z,1.43
2023-04-23T19:42:35.072Z,1.00
2023-04-23T19:45:02.910Z,1.20
2023-04-23T19:47:32.549Z,1.20
2023-04-23T19:50:00.520Z,1.30
2023-04-23T19:52:28.651Z,1.00
2023-04-23T19:54:56.486Z,1.17
2023-04-23T19:57:25.875Z,1.20
2023-04-23T19:59:53.803Z,1.43
2023-04-23T20:02:22.010Z,1.00
2023-04-23T20:04:50.005Z,1.10
2023-04-23T20:07:18.506Z,1.10
2023-04-23T20:09:46.216Z,2.10
2023-04-23T20:12:14.635Z,1.63
2023-04-23T20:14:43.747Z,1.50
2023-04-23T20:17:11.953Z,1.17
2023-04-23T20:19:41.083Z,2.23
2023-04-23T20:22:09.296Z,2.33
2023-04-23T20:24:40.246Z,1.60
2023-04-23T20:27:08.005Z,1.23
2023-04-23T20:29:35.827Z,1.70
2023-04-23T20:32:04.947Z,1.03
2023-04-23T20:34:32.641Z,1.00
2023-04-23T20:37:01.046Z,1.10
2023-04-23T20:39:29.022Z,1.43
2023-04-23T20:42:00.106Z,1.17
2023-04-23T20:44:28.059Z,1.30
2023-04-23T20:46:57.865Z,1.20
2023-04-23T20:49:26.974Z,0.97
2023-04-23T20:51:54.771Z,0.70
2023-04-23T20:54:22.562Z,0.77
2023-04-23T20:56:54.047Z,0.93
2023-04-23T20:59:22.768Z,0.90
2023-04-23T21:01:50.643Z,1.00
2023-04-23T21:04:18.525Z,0.63
2023-04-23T21:06:47.879Z,0.80
2023-04-23T21:09:16.506Z,0.87
2023-04-23T21:11:44.934Z,1.17
2023-04-23T21:14:12.651Z,1.10
2023-04-23T21:16:40.413Z,0.90
2023-04-23T21:19:08.156Z,0.80
2023-04-23T21:21:35.906Z,0.80
2023-04-23T21:24:05.241Z,0.80
2023-04-23T21:26:33.269Z,0.97
2023-04-23T21:29:01.071Z,0.83
2023-04-23T21:31:39.841Z,1.30
2023-04-23T21:34:07.696Z,1.07
2023-04-23T21:36:35.430Z,0.70
2023-04-23T21:39:03.248Z,0.90
2023-04-23T21:41:32.350Z,0.90
2023-04-23T21:44:00.211Z,0.77
2023-04-23T21:46:28.171Z,0.80
2023-04-23T21:48:56.523Z,0.80
2023-04-23T21:51:25.064Z,0.87
2023-04-23T21:53:53.026Z,0.97
2023-04-23T21:56:21.256Z,0.70
2023-04-23T21:58:50.594Z,1.10
2023-04-23T22:01:18.576Z,0.80
2023-04-23T22:03:47.975Z,0.80
2023-04-23T22:06:17.814Z,0.87
2023-04-23T22:08:46.300Z,1.30
2023-04-23T22:11:14.696Z,0.90
2023-04-23T22:13:42.341Z,1.00
2023-04-23T22:16:26.918Z,0.70
2023-04-23T22:18:55.810Z,0.98
2023-04-23T22:21:23.580Z,0.90
2023-04-23T22:23:51.288Z,0.90
2023-04-23T22:26:19.004Z,1.17
2023-04-23T22:28:46.747Z,1.10
2023-04-23T22:31:15.934Z,1.00
2023-04-23T22:33:43.769Z,1.07
2023-04-23T22:36:11.633Z,0.90
2023-04-23T22:38:39.515Z,1.03
2023-04-23T22:41:07.826Z,1.10
2023-04-23T22:43:35.696Z,1.23
2023-04-23T22:46:03.500Z,1.00
2023-04-23T22:48:32.709Z,0.97
2023-04-23T22:51:00.893Z,1.03
2023-04-23T22:53:29.166Z,1.20
2023-04-23T22:55:57.704Z,1.20
2023-04-23T22:58:25.455Z,1.20
2023-04-23T23:00:53.238Z,0.90
2023-04-23T23:03:21.027Z,1.17
2023-04-23T23:05:50.142Z,1.07
2023-04-23T23:08:17.828Z,1.23
2023-04-23T23:10:45.702Z,0.90
2023-04-23T23:13:14.114Z,0.90
2023-04-23T23:15:41.813Z,1.10
2023-04-23T23:18:09.637Z,1.17
2023-04-23T23:20:39.187Z,1.77
2023-04-23T23:23:08.267Z,0.80
2023-04-23T23:25:38.364Z,0.93
2023-04-23T23:28:06.277Z,1.10
2023-04-23T23:30:33.985Z,1.00
2023-04-23T23:33:01.922Z,1.00
2023-04-23T23:35:29.845Z,1.93
2023-04-23T23:37:57.974Z,1.00
2023-04-23T23:40:27.734Z,1.10
2023-04-23T23:42:56.024Z,1.03
2023-04-23T23:45:24.007Z,0.90
2023-04-23T23:47:52.329Z,1.30
2023-04-23T23:50:20.080Z,1.00
2023-04-23T23:52:47.784Z,1.00
2023-04-23T23:55:15.913Z,1.00
2023-04-23T23:57:45.083Z,0.90
